createdAt,value
2022-09-02T00:02:37.902Z,61.77
2022-09-02T00:05:40.175Z,61.79
2022-09-02T00:08:43.280Z,61.10
2022-09-02T00:11:47.285Z,60.58
2022-09-02T00:14:49.509Z,60.94
2022-09-02T00:17:51.441Z,60.77
2022-09-02T00:20:53.774Z,59.78
2022-09-02T00:23:58.095Z,59.30
2022-09-02T00:26:59.928Z,59.38
2022-09-02T00:30:02.439Z,58.39
2022-09-02T00:33:04.979Z,59.28
2022-09-02T00:36:07.073Z,58.72
2022-09-02T00:39:09.433Z,58.84
2022-09-02T00:42:12.231Z,58.48
2022-09-02T00:45:15.415Z,58.82
2022-09-02T00:48:17.400Z,58.48
2022-09-02T00:51:19.345Z,58.27
2022-09-02T00:54:23.312Z,57.73
2022-09-02T00:57:48.838Z,58.19
2022-09-02T01:00:53.125Z,58.79
2022-09-02T01:03:55.650Z,58.66
2022-09-02T01:07:00.113Z,58.75
2022-09-02T01:10:04.082Z,58.22
2022-09-02T01:13:17.382Z,58.05
2022-09-02T01:16:34.018Z,58.36
2022-09-02T01:19:40.084Z,58.67
2022-09-02T01:22:42.515Z,58.67
2022-09-02T01:25:44.845Z,59.14
2022-09-02T01:28:47.379Z,59.14
2022-09-02T01:31:49.591Z,59.20
2022-09-02T01:34:52.269Z,59.50
2022-09-02T01:37:56.537Z,59.64
2022-09-02T01:40:59.273Z,59.30
2022-09-02T01:44:02.217Z,59.30
2022-09-02T01:47:04.535Z,59.13
2022-09-02T01:50:07.703Z,59.01
2022-09-02T01:53:09.991Z,59.52
2022-09-02T01:56:12.339Z,58.76
2022-09-02T01:59:18.091Z,58.92
2022-09-02T02:02:21.055Z,60.28
2022-09-02T02:05:23.169Z,60.23
2022-09-02T02:08:27.329Z,59.83
2022-09-02T02:11:32.951Z,59.86
2022-09-02T02:14:36.145Z,59.76
2022-09-02T02:17:41.900Z,60.54
2022-09-02T02:20:45.175Z,60.30
2022-09-02T02:23:47.254Z,59.53
2022-09-02T02:26:49.493Z,60.09
2022-09-02T02:29:54.624Z,60.11
2022-09-02T02:32:58.168Z,59.48
2022-09-02T02:36:01.748Z,60.53
2022-09-02T02:39:05.826Z,60.03
2022-09-02T02:42:08.267Z,60.44
2022-09-02T02:45:15.251Z,60.56
2022-09-02T02:48:18.632Z,60.63
2022-09-02T02:51:20.670Z,60.11
2022-09-02T02:54:27.496Z,60.63
2022-09-02T02:57:39.429Z,60.29
2022-09-02T03:00:42.700Z,60.36
2022-09-02T03:03:44.851Z,61.00
2022-09-02T03:06:47.786Z,60.36
2022-09-02T03:09:50.254Z,60.91
2022-09-02T03:12:52.672Z,60.03
2022-09-02T03:15:56.504Z,60.78
2022-09-02T03:18:58.685Z,60.18
2022-09-02T03:22:01.050Z,60.21
2022-09-02T03:25:03.571Z,60.74
2022-09-02T03:28:05.549Z,60.96
2022-09-02T03:31:08.991Z,60.63
2022-09-02T03:34:12.208Z,61.23
2022-09-02T03:37:14.955Z,61.03
2022-09-02T03:40:20.402Z,60.73
2022-09-02T03:43:23.430Z,61.18
2022-09-02T03:46:25.871Z,60.59
2022-09-02T03:49:28.935Z,61.26
2022-09-02T03:52:31.010Z,60.70
2022-09-02T03:55:34.404Z,61.74
2022-09-02T03:58:36.856Z,61.49
2022-09-02T04:01:40.755Z,61.66
2022-09-02T04:04:43.280Z,62.15
2022-09-02T04:07:47.035Z,61.60
2022-09-02T04:10:51.244Z,61.98
2022-09-02T04:13:54.025Z,61.90
2022-09-02T04:16:59.253Z,61.73
2022-09-02T04:20:02.628Z,62.02
2022-09-02T04:23:07.497Z,61.58
2022-09-02T04:26:12.891Z,61.52
2022-09-02T04:29:16.984Z,61.19
2022-09-02T04:32:23.137Z,61.01
2022-09-02T04:35:26.317Z,61.93
2022-09-02T04:38:28.911Z,62.26
2022-09-02T04:41:32.605Z,62.14
2022-09-02T04:44:38.672Z,61.92
2022-09-02T04:47:41.445Z,63.02
2022-09-02T04:50:44.059Z,62.71
2022-09-02T04:53:48.816Z,62.72
2022-09-02T04:56:51.224Z,62.43
2022-09-02T04:59:58.486Z,62.96
2022-09-02T05:03:00.892Z,62.38
2022-09-02T05:06:08.153Z,62.13
2022-09-02T05:09:16.188Z,62.06
2022-09-02T05:12:19.747Z,62.86
2022-09-02T05:15:29.646Z,62.44
2022-09-02T05:18:32.472Z,62.77
2022-09-02T05:21:40.802Z,62.62
2022-09-02T05:24:43.773Z,62.64
2022-09-02T05:27:48.264Z,62.94
2022-09-02T05:30:51.262Z,62.68
2022-09-02T05:33:53.611Z,63.03
2022-09-02T05:36:58.611Z,62.33
2022-09-02T05:40:05.881Z,62.48
2022-09-02T05:43:13.289Z,61.91
2022-09-02T05:46:20.383Z,62.13
2022-09-02T05:49:23.036Z,61.91
2022-09-02T05:52:35.843Z,61.76
2022-09-02T05:55:39.846Z,62.13
2022-09-02T05:58:42.919Z,62.20
2022-09-02T06:01:47.847Z,61.90
2022-09-02T06:04:54.890Z,62.13
2022-09-02T06:07:58.301Z,62.10
2022-09-02T06:11:04.074Z,62.41
2022-09-02T06:14:08.260Z,62.34
2022-09-02T06:17:16.179Z,62.44
2022-09-02T06:20:24.609Z,62.08
2022-09-02T06:23:27.747Z,62.00
2022-09-02T06:26:30.260Z,62.66
2022-09-02T06:29:33.502Z,62.25
2022-09-02T06:32:36.072Z,61.94
2022-09-02T06:35:45.877Z,62.41
2022-09-02T06:38:53.458Z,62.88
2022-09-02T06:41:57.335Z,62.11
2022-09-02T06:45:04.243Z,62.14
2022-09-02T06:48:08.434Z,61.30
2022-09-02T06:51:29.716Z,61.72
2022-09-02T06:54:34.247Z,61.63
2022-09-02T06:57:45.899Z,61.13
2022-09-02T07:00:49.466Z,60.45
2022-09-02T07:04:10.661Z,60.64
2022-09-02T07:07:14.822Z,60.05
2022-09-02T07:10:27.157Z,58.80
2022-09-02T07:13:31.122Z,58.18
2022-09-02T07:16:42.034Z,58.99
2022-09-02T07:19:44.950Z,58.14
2022-09-02T07:22:47.264Z,57.86
2022-09-02T07:25:51.653Z,57.95
2022-09-02T07:28:55.251Z,58.43
2022-09-02T07:31:59.153Z,56.85
2022-09-02T07:35:06.633Z,57.99
2022-09-02T07:38:11.863Z,56.41
2022-09-02T07:41:14.757Z,56.18
2022-09-02T07:44:18.807Z,55.32
2022-09-02T07:47:21.346Z,55.64
2022-09-02T07:50:27.511Z,55.71
2022-09-02T07:53:32.968Z,55.36
2022-09-02T07:56:35.924Z,55.88
2022-09-02T07:59:39.181Z,55.36
2022-09-02T08:02:43.547Z,54.19
2022-09-02T08:05:52.525Z,54.71
2022-09-02T08:08:56.240Z,53.89
2022-09-02T08:11:59.522Z,54.18
2022-09-02T08:15:03.182Z,53.17
2022-09-02T08:18:07.181Z,52.34
2022-09-02T08:21:10.606Z,52.46
2022-09-02T08:24:12.845Z,51.43
2022-09-02T08:27:15.101Z,50.05
2022-09-02T08:30:18.014Z,50.79
2022-09-02T08:33:20.194Z,49.94
2022-09-02T08:36:22.624Z,50.68
2022-09-02T08:39:25.417Z,50.58
2022-09-02T08:42:33.863Z,48.75
2022-09-02T08:45:37.768Z,49.92
2022-09-02T08:48:49.580Z,49.35
2022-09-02T08:51:57.061Z,48.63
2022-09-02T08:55:03.987Z,48.53
2022-09-02T09:01:14.852Z,48.63
2022-09-02T09:04:44.545Z,47.09
2022-09-02T09:07:49.438Z,47.53
2022-09-02T09:11:00.127Z,49.11
2022-09-02T09:14:15.278Z,46.35
2022-09-02T09:17:21.923Z,46.07
2022-09-02T09:20:28.851Z,47.19
2022-09-02T09:23:41.199Z,45.71
2022-09-02T09:26:44.621Z,46.72
2022-09-02T09:29:48.042Z,45.75
2022-09-02T09:32:55.178Z,46.18
2022-09-02T09:35:58.830Z,45.77
2022-09-02T09:39:17.155Z,46.14
2022-09-02T09:42:31.188Z,44.79
2022-09-02T09:45:42.195Z,47.05
2022-09-02T09:48:50.118Z,47.03
2022-09-02T09:51:56.599Z,44.36
2022-09-02T09:55:08.504Z,44.75
2022-09-02T09:58:11.184Z,45.33
2022-09-02T10:01:27.291Z,42.57
2022-09-02T10:04:47.707Z,42.57
2022-09-02T10:07:59.577Z,43.43
2022-09-02T10:11:05.910Z,42.35
2022-09-02T10:14:12.071Z,42.90
2022-09-02T10:17:23.067Z,42.11
2022-09-02T10:21:15.745Z,40.92
2022-09-02T10:24:49.280Z,42.71
2022-09-02T10:28:18.559Z,39.60
2022-09-02T10:34:57.121Z,40.00
2022-09-02T10:38:12.427Z,38.24
2022-09-02T10:41:46.806Z,36.47
2022-09-02T10:45:15.134Z,38.05
2022-09-02T10:48:30.227Z,37.20
2022-09-02T10:51:46.161Z,37.33
2022-09-02T10:55:10.486Z,38.58
2022-09-02T10:58:21.349Z,37.53
2022-09-02T11:01:30.571Z,36.80
2022-09-02T11:04:41.315Z,36.21
2022-09-02T11:07:58.894Z,34.70
2022-09-02T11:11:07.827Z,36.63
2022-09-02T11:14:24.447Z,36.80
2022-09-02T11:17:38.185Z,36.49
2022-09-02T11:21:00.497Z,36.23
2022-09-02T11:24:16.143Z,36.76
2022-09-02T11:27:42.926Z,34.86
2022-09-02T11:31:18.050Z,34.44
2022-09-02T11:34:47.381Z,33.88
2022-09-02T11:37:58.547Z,33.97
2022-09-02T11:41:42.442Z,33.91
2022-09-02T11:45:00.697Z,33.15
2022-09-02T11:48:21.564Z,32.65
2022-09-02T11:51:23.859Z,36.66
2022-09-02T11:54:31.125Z,33.93
2022-09-02T11:57:41.511Z,36.67
2022-09-02T12:00:57.041Z,32.79
2022-09-02T12:07:48.732Z,34.74
2022-09-02T12:10:51.515Z,36.20
2022-09-02T12:13:53.896Z,34.77
2022-09-02T12:17:03.881Z,35.20
2022-09-02T12:20:09.142Z,33.85
2022-09-02T12:23:49.018Z,36.19
2022-09-02T12:26:53.510Z,34.06
2022-09-02T12:29:56.116Z,33.58
2022-09-02T12:33:16.322Z,34.75
2022-09-02T12:36:36.650Z,34.30
2022-09-02T12:39:43.976Z,35.36
2022-09-02T12:42:48.376Z,36.41
2022-09-02T12:45:50.840Z,36.61
2022-09-02T12:49:06.511Z,35.54
2022-09-02T12:52:14.072Z,36.19
2022-09-02T12:55:16.064Z,36.54
2022-09-02T12:58:21.602Z,36.16
2022-09-02T13:01:48.952Z,35.38
2022-09-02T13:05:00.620Z,35.38
2022-09-02T13:08:14.893Z,35.77
2022-09-02T13:11:45.148Z,36.50
2022-09-02T13:15:12.989Z,35.35
2022-09-02T13:18:42.240Z,32.98
2022-09-02T13:21:50.918Z,35.60
2022-09-02T13:25:00.416Z,33.24
2022-09-02T13:28:29.179Z,32.56
2022-09-02T13:31:31.969Z,33.86
2022-09-02T13:34:42.564Z,36.10
2022-09-02T13:37:46.563Z,34.10
2022-09-02T13:40:53.484Z,35.36
2022-09-02T13:44:13.550Z,35.13
2022-09-02T13:47:22.754Z,36.33
2022-09-02T13:50:27.574Z,36.04
2022-09-02T13:53:45.586Z,37.67
2022-09-02T13:57:06.739Z,36.12
2022-09-02T14:00:09.901Z,34.77
2022-09-02T14:03:25.784Z,36.52
2022-09-02T14:06:36.805Z,37.74
2022-09-02T14:09:40.363Z,37.39
2022-09-02T14:12:42.654Z,38.40
2022-09-02T14:15:47.276Z,37.12
2022-09-02T14:19:10.594Z,36.09
2022-09-02T14:22:30.165Z,35.30
2022-09-02T14:25:53.626Z,32.85
2022-09-02T14:29:02.065Z,35.06
2022-09-02T14:32:13.611Z,33.63
2022-09-02T14:35:18.799Z,34.29
2022-09-02T14:38:25.572Z,36.92
2022-09-02T14:41:32.389Z,35.35
2022-09-02T14:44:36.523Z,35.19
2022-09-02T14:47:39.814Z,34.39
2022-09-02T14:50:42.195Z,35.56
2022-09-02T14:53:45.981Z,36.16
2022-09-02T14:56:53.860Z,34.61
2022-09-02T14:59:57.641Z,35.37
2022-09-02T15:03:02.825Z,35.40
2022-09-02T15:06:10.793Z,35.48
2022-09-02T15:09:16.763Z,34.83
2022-09-02T15:12:30.347Z,34.54
2022-09-02T15:15:32.166Z,36.89
2022-09-02T15:18:40.070Z,37.42
2022-09-02T15:21:41.915Z,37.17
2022-09-02T15:24:44.337Z,37.82
2022-09-02T15:27:46.348Z,38.51
2022-09-02T15:30:49.603Z,37.26
2022-09-02T15:33:52.434Z,38.12
2022-09-02T15:36:55.515Z,38.10
2022-09-02T15:40:00.572Z,37.22
2022-09-02T15:43:02.496Z,38.38
2022-09-02T15:46:16.715Z,38.69
2022-09-02T15:49:19.130Z,37.42
2022-09-02T15:52:21.155Z,37.57
2022-09-02T15:55:29.235Z,38.11
2022-09-02T15:58:31.638Z,38.88
2022-09-02T16:01:39.023Z,39.67
2022-09-02T16:04:41.502Z,39.52
2022-09-02T16:07:43.628Z,38.55
2022-09-02T16:10:45.572Z,39.53
2022-09-02T16:13:48.058Z,39.52
2022-09-02T16:16:58.252Z,39.74
2022-09-02T16:20:00.373Z,39.71
2022-09-02T16:23:02.772Z,39.64
2022-09-02T16:26:13.286Z,40.99
2022-09-02T16:29:16.809Z,41.06
2022-09-02T16:32:27.270Z,41.37
2022-09-02T16:35:38.364Z,42.20
2022-09-02T16:38:40.704Z,42.69
2022-09-02T16:41:51.221Z,44.39
2022-09-02T16:44:53.220Z,44.40
2022-09-02T16:47:55.810Z,44.49
2022-09-02T16:51:02.852Z,44.74
2022-09-02T16:54:05.469Z,44.71
2022-09-02T16:57:07.854Z,45.25
2022-09-02T17:00:10.506Z,45.44
2022-09-02T17:03:13.732Z,46.11
2022-09-02T17:06:15.933Z,46.74
2022-09-02T17:09:17.994Z,47.51
2022-09-02T17:12:20.070Z,48.16
2022-09-02T17:15:22.430Z,47.92
2022-09-02T17:18:24.356Z,48.77
2022-09-02T17:21:42.830Z,49.47
2022-09-02T17:24:45.065Z,48.63
2022-09-02T17:27:47.193Z,49.03
2022-09-02T17:30:49.464Z,48.98
2022-09-02T17:33:53.770Z,49.49
2022-09-02T17:36:55.687Z,49.63
2022-09-02T17:39:57.790Z,49.36
2022-09-02T17:43:00.926Z,49.69
2022-09-02T17:46:09.621Z,50.89
2022-09-02T17:49:17.210Z,50.34
2022-09-02T17:52:24.289Z,51.13
2022-09-02T17:55:26.803Z,51.57
2022-09-02T17:58:36.203Z,51.21
2022-09-02T18:01:50.693Z,51.13
2022-09-02T18:04:58.670Z,50.83
2022-09-02T18:08:25.908Z,51.21
2022-09-02T18:11:28.883Z,51.06
2022-09-02T18:14:41.128Z,52.24
2022-09-02T18:17:50.848Z,52.30
2022-09-02T18:21:02.049Z,52.02
2022-09-02T18:24:14.725Z,52.50
2022-09-02T18:27:24.693Z,51.51
2022-09-02T18:30:56.496Z,53.12
2022-09-02T18:34:30.287Z,52.30
2022-09-02T18:37:48.853Z,53.93
2022-09-02T18:41:22.355Z,54.69
2022-09-02T18:45:01.451Z,54.44
2022-09-02T18:48:08.503Z,53.76
2022-09-02T18:51:30.566Z,56.01
2022-09-02T18:55:00.374Z,53.33
2022-09-02T18:58:32.203Z,54.81
2022-09-02T19:01:41.309Z,54.28
2022-09-02T19:04:43.917Z,54.67
2022-09-02T19:08:05.739Z,55.20
2022-09-02T19:11:14.501Z,55.23
2022-09-02T19:14:26.759Z,55.00
2022-09-02T19:17:28.954Z,54.31
2022-09-02T19:20:31.496Z,54.98
2022-09-02T19:23:34.702Z,55.28
2022-09-02T19:26:38.680Z,55.66
2022-09-02T19:29:43.786Z,55.81
2022-09-02T19:32:48.302Z,55.59
2022-09-02T19:35:51.422Z,54.73
2022-09-02T19:38:54.469Z,55.64
2022-09-02T19:41:57.334Z,56.62
2022-09-02T19:45:00.970Z,56.63
2022-09-02T19:48:07.415Z,57.30
2022-09-02T19:51:14.206Z,57.77
2022-09-02T19:54:20.611Z,58.05
2022-09-02T19:57:22.894Z,58.00
2022-09-02T20:00:28.206Z,56.78
2022-09-02T20:03:30.809Z,56.43
2022-09-02T20:06:33.804Z,56.62
2022-09-02T20:09:35.923Z,57.16
2022-09-02T20:12:37.864Z,58.20
2022-09-02T20:15:40.115Z,57.26
2022-09-02T20:18:45.192Z,57.39
2022-09-02T20:21:47.415Z,58.08
2022-09-02T20:24:50.018Z,58.46
2022-09-02T20:28:23.360Z,59.81
2022-09-02T20:31:32.213Z,58.49
2022-09-02T20:34:39.863Z,58.86
2022-09-02T20:37:52.497Z,58.75
2022-09-02T20:41:03.003Z,60.34
2022-09-02T20:44:08.545Z,60.59
2022-09-02T20:47:24.688Z,61.12
2022-09-02T20:50:44.871Z,61.08
2022-09-02T20:54:00.768Z,60.83
2022-09-02T20:57:09.833Z,59.97
2022-09-02T21:00:14.093Z,60.19
2022-09-02T21:03:17.955Z,59.72
2022-09-02T21:06:26.292Z,60.06
2022-09-02T21:09:43.254Z,62.32
2022-09-02T21:12:57.504Z,61.10
2022-09-02T21:16:03.061Z,60.05
2022-09-02T21:19:06.490Z,61.09
2022-09-02T21:22:29.561Z,61.39
2022-09-02T21:25:51.102Z,61.13
2022-09-02T21:29:05.635Z,61.47
2022-09-02T21:32:24.998Z,61.62
2022-09-02T21:35:43.341Z,62.02
2022-09-02T21:38:46.321Z,60.90
2022-09-02T21:42:14.418Z,62.64
2022-09-02T21:45:19.242Z,62.04
2022-09-02T21:48:44.319Z,62.61
2022-09-02T21:51:51.238Z,62.79
2022-09-02T21:55:05.233Z,63.01
2022-09-02T21:58:18.619Z,62.72
2022-09-02T22:02:01.697Z,63.08
2022-09-02T22:05:23.995Z,63.11
2022-09-02T22:08:40.057Z,62.60
2022-09-02T22:11:47.840Z,62.97
2022-09-02T22:15:01.950Z,64.49
2022-09-02T22:18:25.020Z,63.21
2022-09-02T22:21:48.723Z,63.86
2022-09-02T22:24:52.299Z,62.32
2022-09-02T22:28:02.814Z,63.21
2022-09-02T22:31:11.356Z,63.11
2022-09-02T22:34:16.405Z,62.64
2022-09-02T22:37:22.545Z,64.09
2022-09-02T22:40:26.410Z,62.86
2022-09-02T22:43:36.076Z,63.70
2022-09-02T22:47:16.222Z,64.18
2022-09-02T22:50:40.762Z,63.62
2022-09-02T22:53:42.938Z,63.73
2022-09-02T22:56:51.131Z,64.02
2022-09-02T22:59:59.057Z,63.55
2022-09-02T23:03:43.541Z,65.58
2022-09-02T23:06:45.462Z,64.30
2022-09-02T23:09:50.736Z,64.32
2022-09-02T23:13:22.037Z,66.68
2022-09-02T23:16:35.282Z,64.77
2022-09-02T23:19:59.243Z,66.44
2022-09-02T23:23:11.145Z,66.01
2022-09-02T23:26:34.832Z,66.31
2022-09-02T23:29:40.283Z,65.18
2022-09-02T23:33:09.093Z,64.37
2022-09-02T23:36:11.936Z,64.91
2022-09-02T23:39:20.869Z,65.28
2022-09-02T23:42:23.330Z,65.36
2022-09-02T23:45:33.048Z,66.55
2022-09-02T23:48:59.910Z,68.61
2022-09-02T23:52:10.883Z,67.94
2022-09-02T23:55:20.077Z,66.19
2022-09-02T23:58:28.406Z,66.51
